sensor_id;sensor_type;location;lat;lon;timestamp;P1;durP1;ratioP1;P2;durP2;ratioP2
13321;SDS011;6730;46.248;6.930;2022-08-19T00:01:46;4.80;;;4.40;;
13321;SDS011;6730;46.248;6.930;2022-08-19T00:04:14;5.25;;;4.72;;
13321;SDS011;6730;46.248;6.930;2022-08-19T00:06:41;5.28;;;4.75;;
13321;SDS011;6730;46.248;6.930;2022-08-19T00:09:09;5.63;;;4.03;;
13321;SDS011;6730;46.248;6.930;2022-08-19T00:11:37;4.57;;;4.18;;
13321;SDS011;6730;46.248;6.930;2022-08-19T00:14:07;4.45;;;4.05;;
13321;SDS011;6730;46.248;6.930;2022-08-19T00:16:35;4.40;;;4.00;;
13321;SDS011;6730;46.248;6.930;2022-08-19T00:19:02;4.90;;;4.18;;
13321;SDS011;6730;46.248;6.930;2022-08-19T00:21:28;4.38;;;3.97;;
13321;SDS011;6730;46.248;6.930;2022-08-19T00:23:55;5.75;;;4.20;;
13321;SDS011;6730;46.248;6.930;2022-08-19T00:26:27;4.55;;;4.15;;
13321;SDS011;6730;46.248;6.930;2022-08-19T00:28:53;5.95;;;3.97;;
13321;SDS011;6730;46.248;6.930;2022-08-19T00:31:20;5.25;;;4.50;;
13321;SDS011;6730;46.248;6.930;2022-08-19T00:33:46;5.15;;;4.22;;
13321;SDS011;6730;46.248;6.930;2022-08-19T00:36:15;4.80;;;4.30;;
13321;SDS011;6730;46.248;6.930;2022-08-19T00:38:41;4.97;;;4.43;;
13321;SDS011;6730;46.248;6.930;2022-08-19T00:41:09;4.32;;;3.90;;
13321;SDS011;6730;46.248;6.930;2022-08-19T00:43:37;3.88;;;3.53;;
13321;SDS011;6730;46.248;6.930;2022-08-19T00:46:05;4.07;;;3.78;;
13321;SDS011;6730;46.248;6.930;2022-08-19T00:48:31;4.32;;;3.92;;
13321;SDS011;6730;46.248;6.930;2022-08-19T00:50:58;4.95;;;4.13;;
13321;SDS011;6730;46.248;6.930;2022-08-19T00:53:26;4.50;;;4.00;;
13321;SDS011;6730;46.248;6.930;2022-08-19T00:55:54;4.93;;;4.53;;
13321;SDS011;6730;46.248;6.930;2022-08-19T00:58:24;4.90;;;4.50;;
13321;SDS011;6730;46.248;6.930;2022-08-19T01:00:54;5.10;;;4.60;;
13321;SDS011;6730;46.248;6.930;2022-08-19T01:03:20;7.55;;;4.97;;
13321;SDS011;6730;46.248;6.930;2022-08-19T01:05:49;5.35;;;4.85;;
13321;SDS011;6730;46.248;6.930;2022-08-19T01:08:17;5.03;;;4.63;;
13321;SDS011;6730;46.248;6.930;2022-08-19T01:10:49;7.05;;;6.07;;
13321;SDS011;6730;46.248;6.930;2022-08-19T01:13:19;5.35;;;4.85;;
13321;SDS011;6730;46.248;6.930;2022-08-19T01:15:50;6.60;;;5.90;;
13321;SDS011;6730;46.248;6.930;2022-08-19T01:18:21;6.80;;;6.10;;
13321;SDS011;6730;46.248;6.930;2022-08-19T01:20:48;7.68;;;6.38;;
13321;SDS011;6730;46.248;6.930;2022-08-19T01:23:15;6.70;;;6.05;;
13321;SDS011;6730;46.248;6.930;2022-08-19T01:30:42;8.45;;;5.88;;
13321;SDS011;6730;46.248;6.930;2022-08-19T01:33:08;5.85;;;5.25;;
13321;SDS011;6730;46.248;6.930;2022-08-19T01:35:34;6.78;;;6.15;;
13321;SDS011;6730;46.248;6.930;2022-08-19T01:38:02;7.15;;;6.45;;
13321;SDS011;6730;46.248;6.930;2022-08-19T01:40:34;5.72;;;5.18;;
13321;SDS011;6730;46.248;6.930;2022-08-19T01:43:03;7.30;;;6.55;;
13321;SDS011;6730;46.248;6.930;2022-08-19T01:45:31;6.50;;;5.30;;
13321;SDS011;6730;46.248;6.930;2022-08-19T01:47:57;6.78;;;6.07;;
13321;SDS011;6730;46.248;6.930;2022-08-19T01:50:24;7.32;;;6.63;;
13321;SDS011;6730;46.248;6.930;2022-08-19T01:52:51;7.90;;;6.90;;
13321;SDS011;6730;46.248;6.930;2022-08-19T01:55:19;7.13;;;6.43;;
13321;SDS011;6730;46.248;6.930;2022-08-19T01:57:48;7.15;;;5.63;;
13321;SDS011;6730;46.248;6.930;2022-08-19T02:00:17;6.18;;;5.35;;
13321;SDS011;6730;46.248;6.930;2022-08-19T02:02:44;8.00;;;6.32;;
13321;SDS011;6730;46.248;6.930;2022-08-19T02:05:11;3.80;;;3.40;;
13321;SDS011;6730;46.248;6.930;2022-08-19T02:07:38;4.25;;;3.55;;
13321;SDS011;6730;46.248;6.930;2022-08-19T02:10:06;2.90;;;2.67;;
13321;SDS011;6730;46.248;6.930;2022-08-19T02:12:34;4.38;;;3.95;;
13321;SDS011;6730;46.248;6.930;2022-08-19T02:15:00;4.45;;;4.05;;
13321;SDS011;6730;46.248;6.930;2022-08-19T02:17:27;3.63;;;3.33;;
13321;SDS011;6730;46.248;6.930;2022-08-19T02:19:54;4.22;;;3.72;;
13321;SDS011;6730;46.248;6.930;2022-08-19T02:22:21;3.80;;;3.40;;
13321;SDS011;6730;46.248;6.930;2022-08-19T02:24:47;3.95;;;3.40;;
13321;SDS011;6730;46.248;6.930;2022-08-19T02:27:13;4.85;;;3.67;;
13321;SDS011;6730;46.248;6.930;2022-08-19T02:29:39;3.53;;;3.20;;
13321;SDS011;6730;46.248;6.930;2022-08-19T02:32:06;3.10;;;2.80;;
13321;SDS011;6730;46.248;6.930;2022-08-19T02:34:32;3.53;;;2.78;;
13321;SDS011;6730;46.248;6.930;2022-08-19T02:36:58;2.38;;;2.17;;
13321;SDS011;6730;46.248;6.930;2022-08-19T02:39:24;3.50;;;2.20;;
13321;SDS011;6730;46.248;6.930;2022-08-19T02:41:51;3.45;;;2.00;;
13321;SDS011;6730;46.248;6.930;2022-08-19T02:44:17;2.67;;;2.20;;
13321;SDS011;6730;46.248;6.930;2022-08-19T02:46:44;2.15;;;1.95;;
13321;SDS011;6730;46.248;6.930;2022-08-19T02:49:11;3.88;;;2.17;;
13321;SDS011;6730;46.248;6.930;2022-08-19T02:51:40;2.05;;;1.85;;
13321;SDS011;6730;46.248;6.930;2022-08-19T02:54:07;2.15;;;1.95;;
13321;SDS011;6730;46.248;6.930;2022-08-19T02:56:34;2.10;;;1.90;;
13321;SDS011;6730;46.248;6.930;2022-08-19T02:59:02;2.50;;;2.03;;
13321;SDS011;6730;46.248;6.930;2022-08-19T03:01:32;1.98;;;1.85;;
13321;SDS011;6730;46.248;6.930;2022-08-19T03:03:58;2.05;;;1.88;;
13321;SDS011;6730;46.248;6.930;2022-08-19T03:06:27;2.00;;;1.80;;
13321;SDS011;6730;46.248;6.930;2022-08-19T03:08:54;1.90;;;1.80;;
13321;SDS011;6730;46.248;6.930;2022-08-19T03:13:53;3.03;;;1.80;;
13321;SDS011;6730;46.248;6.930;2022-08-19T03:16:20;1.85;;;1.50;;
13321;SDS011;6730;46.248;6.930;2022-08-19T03:18:48;2.53;;;1.60;;
13321;SDS011;6730;46.248;6.930;2022-08-19T03:21:16;1.90;;;1.60;;
13321;SDS011;6730;46.248;6.930;2022-08-19T03:23:43;1.60;;;1.50;;
13321;SDS011;6730;46.248;6.930;2022-08-19T03:26:09;1.98;;;1.70;;
13321;SDS011;6730;46.248;6.930;2022-08-19T03:28:34;1.60;;;1.50;;
13321;SDS011;6730;46.248;6.930;2022-08-19T03:31:05;2.38;;;1.48;;
13321;SDS011;6730;46.248;6.930;2022-08-19T03:33:34;1.80;;;1.55;;
13321;SDS011;6730;46.248;6.930;2022-08-19T03:36:04;1.52;;;1.42;;
13321;SDS011;6730;46.248;6.930;2022-08-19T03:38:34;2.03;;;1.50;;
13321;SDS011;6730;46.248;6.930;2022-08-19T03:41:05;1.60;;;1.50;;
13321;SDS011;6730;46.248;6.930;2022-08-19T03:43:36;3.08;;;1.52;;
13321;SDS011;6730;46.248;6.930;2022-08-19T03:46:04;1.50;;;1.40;;
13321;SDS011;6730;46.248;6.930;2022-08-19T03:48:36;1.27;;;1.17;;
13321;SDS011;6730;46.248;6.930;2022-08-19T03:51:03;1.48;;;1.38;;
13321;SDS011;6730;46.248;6.930;2022-08-19T03:53:30;1.40;;;1.20;;
13321;SDS011;6730;46.248;6.930;2022-08-19T03:55:57;1.40;;;1.30;;
13321;SDS011;6730;46.248;6.930;2022-08-19T03:58:25;2.92;;;1.42;;
13321;SDS011;6730;46.248;6.930;2022-08-19T04:00:53;1.48;;;1.38;;
13321;SDS011;6730;46.248;6.930;2022-08-19T04:03:23;2.53;;;1.38;;
13321;SDS011;6730;46.248;6.930;2022-08-19T04:05:51;1.50;;;1.40;;
13321;SDS011;6730;46.248;6.930;2022-08-19T04:08:18;1.60;;;1.50;;
13321;SDS011;6730;46.248;6.930;2022-08-19T04:10:45;1.40;;;1.30;;
13321;SDS011;6730;46.248;6.930;2022-08-19T04:13:12;3.25;;;1.35;;
13321;SDS011;6730;46.248;6.930;2022-08-19T04:15:40;1.27;;;1.17;;
13321;SDS011;6730;46.248;6.930;2022-08-19T04:18:08;1.42;;;1.33;;
13321;SDS011;6730;46.248;6.930;2022-08-19T04:20:39;1.80;;;1.70;;
13321;SDS011;6730;46.248;6.930;2022-08-19T04:23:06;1.67;;;1.40;;
13321;SDS011;6730;46.248;6.930;2022-08-19T04:25:50;1.45;;;1.35;;
13321;SDS011;6730;46.248;6.930;2022-08-19T04:28:15;1.73;;;1.60;;
13321;SDS011;6730;46.248;6.930;2022-08-19T04:30:43;3.22;;;1.50;;
13321;SDS011;6730;46.248;6.930;2022-08-19T04:33:12;1.83;;;1.50;;
13321;SDS011;6730;46.248;6.930;2022-08-19T04:35:41;1.60;;;1.50;;
13321;SDS011;6730;46.248;6.930;2022-08-19T04:38:08;1.80;;;1.70;;
13321;SDS011;6730;46.248;6.930;2022-08-19T04:40:39;2.20;;;1.52;;
13321;SDS011;6730;46.248;6.930;2022-08-19T04:43:28;2.40;;;1.70;;
13321;SDS011;6730;46.248;6.930;2022-08-19T04:45:54;2.25;;;1.60;;
13321;SDS011;6730;46.248;6.930;2022-08-19T04:48:20;2.17;;;1.83;;
13321;SDS011;6730;46.248;6.930;2022-08-19T04:50:57;4.32;;;1.52;;
13321;SDS011;6730;46.248;6.930;2022-08-19T04:53:24;2.83;;;1.92;;
13321;SDS011;6730;46.248;6.930;2022-08-19T04:55:53;2.03;;;1.90;;
13321;SDS011;6730;46.248;6.930;2022-08-19T04:58:23;2.30;;;2.10;;
13321;SDS011;6730;46.248;6.930;2022-08-19T05:00:50;2.63;;;2.22;;
13321;SDS011;6730;46.248;6.930;2022-08-19T05:03:16;3.05;;;2.30;;
13321;SDS011;6730;46.248;6.930;2022-08-19T05:05:43;3.10;;;2.40;;
13321;SDS011;6730;46.248;6.930;2022-08-19T05:08:11;21.17;;;3.22;;
13321;SDS011;6730;46.248;6.930;2022-08-19T05:10:38;2.40;;;2.20;;
13321;SDS011;6730;46.248;6.930;2022-08-19T05:13:05;2.17;;;1.98;;
13321;SDS011;6730;46.248;6.930;2022-08-19T05:15:33;1.98;;;1.77;;
13321;SDS011;6730;46.248;6.930;2022-08-19T05:17:59;2.53;;;2.05;;
13321;SDS011;6730;46.248;6.930;2022-08-19T05:20:43;2.67;;;1.85;;
13321;SDS011;6730;46.248;6.930;2022-08-19T05:23:27;2.22;;;2.00;;
13321;SDS011;6730;46.248;6.930;2022-08-19T05:25:53;2.53;;;1.73;;
13321;SDS011;6730;46.248;6.930;2022-08-19T05:28:19;1.77;;;1.60;;
13321;SDS011;6730;46.248;6.930;2022-08-19T05:30:45;1.70;;;1.60;;
13321;SDS011;6730;46.248;6.930;2022-08-19T05:33:12;1.40;;;1.30;;
13321;SDS011;6730;46.248;6.930;2022-08-19T05:35:38;1.40;;;1.30;;
13321;SDS011;6730;46.248;6.930;2022-08-19T05:38:06;1.30;;;1.20;;
13321;SDS011;6730;46.248;6.930;2022-08-19T05:40:37;1.83;;;1.20;;
13321;SDS011;6730;46.248;6.930;2022-08-19T05:43:07;1.15;;;1.05;;
13321;SDS011;6730;46.248;6.930;2022-08-19T05:45:37;1.20;;;0.95;;
13321;SDS011;6730;46.248;6.930;2022-08-19T05:48:04;0.80;;;0.80;;
13321;SDS011;6730;46.248;6.930;2022-08-19T05:50:30;0.80;;;0.70;;
13321;SDS011;6730;46.248;6.930;2022-08-19T05:52:56;1.52;;;1.42;;
13321;SDS011;6730;46.248;6.930;2022-08-19T05:55:22;3.88;;;2.85;;
13321;SDS011;6730;46.248;6.930;2022-08-19T05:57:48;1.70;;;1.52;;
13321;SDS011;6730;46.248;6.930;2022-08-19T06:00:14;1.00;;;1.00;;
13321;SDS011;6730;46.248;6.930;2022-08-19T06:02:40;1.20;;;1.10;;
13321;SDS011;6730;46.248;6.930;2022-08-19T06:05:06;2.55;;;1.10;;
13321;SDS011;6730;46.248;6.930;2022-08-19T06:07:34;2.75;;;1.60;;
13321;SDS011;6730;46.248;6.930;2022-08-19T06:10:02;1.48;;;1.20;;
13321;SDS011;6730;46.248;6.930;2022-08-19T06:12:33;2.58;;;1.10;;
13321;SDS011;6730;46.248;6.930;2022-08-19T06:15:00;1.08;;;1.00;;
13321;SDS011;6730;46.248;6.930;2022-08-19T06:17:29;1.00;;;0.90;;
13321;SDS011;6730;46.248;6.930;2022-08-19T06:19:55;1.10;;;1.10;;
13321;SDS011;6730;46.248;6.930;2022-08-19T06:22:21;1.45;;;1.10;;
13321;SDS011;6730;46.248;6.930;2022-08-19T06:24:47;1.73;;;1.20;;
13321;SDS011;6730;46.248;6.930;2022-08-19T06:27:13;0.88;;;0.88;;
13321;SDS011;6730;46.248;6.930;2022-08-19T06:29:38;0.90;;;0.90;;
13321;SDS011;6730;46.248;6.930;2022-08-19T06:32:04;0.98;;;0.98;;
13321;SDS011;6730;46.248;6.930;2022-08-19T06:34:30;1.10;;;1.00;;
13321;SDS011;6730;46.248;6.930;2022-08-19T06:36:59;0.95;;;0.90;;
13321;SDS011;6730;46.248;6.930;2022-08-19T06:39:27;2.00;;;1.10;;
13321;SDS011;6730;46.248;6.930;2022-08-19T06:41:56;9.38;;;1.75;;
13321;SDS011;6730;46.248;6.930;2022-08-19T06:44:26;11.65;;;1.92;;
13321;SDS011;6730;46.248;6.930;2022-08-19T06:46:54;2.17;;;1.63;;
13321;SDS011;6730;46.248;6.930;2022-08-19T06:49:20;2.70;;;1.80;;
13321;SDS011;6730;46.248;6.930;2022-08-19T06:51:47;1.50;;;1.35;;
13321;SDS011;6730;46.248;6.930;2022-08-19T06:54:14;1.20;;;1.10;;
13321;SDS011;6730;46.248;6.930;2022-08-19T06:56:41;1.40;;;1.30;;
13321;SDS011;6730;46.248;6.930;2022-08-19T06:59:15;2.03;;;1.38;;
13321;SDS011;6730;46.248;6.930;2022-08-19T07:01:44;1.20;;;1.05;;
13321;SDS011;6730;46.248;6.930;2022-08-19T07:04:16;1.58;;;1.02;;
13321;SDS011;6730;46.248;6.930;2022-08-19T07:06:43;1.15;;;1.00;;
13321;SDS011;6730;46.248;6.930;2022-08-19T07:09:11;1.10;;;1.00;;
13321;SDS011;6730;46.248;6.930;2022-08-19T07:11:38;1.27;;;1.00;;
13321;SDS011;6730;46.248;6.930;2022-08-19T07:14:08;1.35;;;1.25;;
13321;SDS011;6730;46.248;6.930;2022-08-19T07:16:34;1.55;;;1.40;;
13321;SDS011;6730;46.248;6.930;2022-08-19T07:18:59;1.50;;;1.40;;
13321;SDS011;6730;46.248;6.930;2022-08-19T07:21:26;1.95;;;1.50;;
13321;SDS011;6730;46.248;6.930;2022-08-19T07:23:54;1.98;;;1.60;;
13321;SDS011;6730;46.248;6.930;2022-08-19T07:26:26;2.90;;;1.60;;
13321;SDS011;6730;46.248;6.930;2022-08-19T07:28:54;2.33;;;2.00;;
13321;SDS011;6730;46.248;6.930;2022-08-19T07:31:22;2.22;;;2.03;;
13321;SDS011;6730;46.248;6.930;2022-08-19T07:33:49;3.13;;;2.85;;
13321;SDS011;6730;46.248;6.930;2022-08-19T07:36:18;2.80;;;2.60;;
13321;SDS011;6730;46.248;6.930;2022-08-19T07:38:47;3.72;;;3.42;;
13321;SDS011;6730;46.248;6.930;2022-08-19T07:41:15;2.70;;;2.50;;
13321;SDS011;6730;46.248;6.930;2022-08-19T07:43:45;2.50;;;2.30;;
13321;SDS011;6730;46.248;6.930;2022-08-19T07:46:11;2.60;;;2.40;;
13321;SDS011;6730;46.248;6.930;2022-08-19T07:48:41;2.17;;;2.00;;
13321;SDS011;6730;46.248;6.930;2022-08-19T07:51:08;2.63;;;2.28;;
13321;SDS011;6730;46.248;6.930;2022-08-19T07:53:35;1.88;;;1.77;;
13321;SDS011;6730;46.248;6.930;2022-08-19T07:56:02;2.20;;;2.00;;
13321;SDS011;6730;46.248;6.930;2022-08-19T07:58:33;2.33;;;2.13;;
13321;SDS011;6730;46.248;6.930;2022-08-19T08:01:03;2.55;;;1.90;;
13321;SDS011;6730;46.248;6.930;2022-08-19T08:03:29;2.10;;;1.90;;
13321;SDS011;6730;46.248;6.930;2022-08-19T08:06:14;2.65;;;1.73;;
13321;SDS011;6730;46.248;6.930;2022-08-19T08:08:59;4.47;;;2.30;;
13321;SDS011;6730;46.248;6.930;2022-08-19T08:14:33;3.10;;;2.80;;
13321;SDS011;6730;46.248;6.930;2022-08-19T08:17:02;3.53;;;2.95;;
13321;SDS011;6730;46.248;6.930;2022-08-19T08:19:29;3.25;;;2.60;;
13321;SDS011;6730;46.248;6.930;2022-08-19T08:21:57;3.88;;;3.38;;
13321;SDS011;6730;46.248;6.930;2022-08-19T08:24:28;4.10;;;2.80;;
13321;SDS011;6730;46.248;6.930;2022-08-19T08:26:56;4.50;;;3.13;;
13321;SDS011;6730;46.248;6.930;2022-08-19T08:29:24;3.75;;;3.40;;
13321;SDS011;6730;46.248;6.930;2022-08-19T08:31:50;3.58;;;3.28;;
13321;SDS011;6730;46.248;6.930;2022-08-19T08:34:16;3.13;;;2.83;;
13321;SDS011;6730;46.248;6.930;2022-08-19T08:36:44;3.38;;;3.08;;
13321;SDS011;6730;46.248;6.930;2022-08-19T08:39:20;4.15;;;3.70;;
13321;SDS011;6730;46.248;6.930;2022-08-19T08:44:38;2.63;;;2.42;;
13321;SDS011;6730;46.248;6.930;2022-08-19T08:47:18;3.13;;;2.78;;
13321;SDS011;6730;46.248;6.930;2022-08-19T08:52:24;112.90;;;10.45;;
13321;SDS011;6730;46.248;6.930;2022-08-19T08:54:55;6.30;;;4.32;;
13321;SDS011;6730;46.248;6.930;2022-08-19T08:57:27;4.50;;;4.10;;
13321;SDS011;6730;46.248;6.930;2022-08-19T08:59:57;4.40;;;3.75;;
13321;SDS011;6730;46.248;6.930;2022-08-19T09:02:27;6.60;;;4.63;;
13321;SDS011;6730;46.248;6.930;2022-08-19T09:04:53;486.95;;;33.33;;
13321;SDS011;6730;46.248;6.930;2022-08-19T09:07:25;116.45;;;11.20;;
13321;SDS011;6730;46.248;6.930;2022-08-19T09:18:20;20.77;;;7.47;;
13321;SDS011;6730;46.248;6.930;2022-08-19T09:20:45;9.23;;;6.18;;
13321;SDS011;6730;46.248;6.930;2022-08-19T09:23:12;417.80;;;23.15;;
13321;SDS011;6730;46.248;6.930;2022-08-19T09:25:38;411.58;;;29.20;;
13321;SDS011;6730;46.248;6.930;2022-08-19T09:28:05;251.88;;;22.23;;
13321;SDS011;6730;46.248;6.930;2022-08-19T09:30:33;265.05;;;20.17;;
13321;SDS011;6730;46.248;6.930;2022-08-19T09:33:04;199.10;;;15.63;;
13321;SDS011;6730;46.248;6.930;2022-08-19T09:35:31;144.77;;;14.50;;
13321;SDS011;6730;46.248;6.930;2022-08-19T09:37:57;72.20;;;10.82;;
13321;SDS011;6730;46.248;6.930;2022-08-19T09:40:24;323.88;;;25.48;;
13321;SDS011;6730;46.248;6.930;2022-08-19T09:42:53;217.60;;;19.70;;
13321;SDS011;6730;46.248;6.930;2022-08-19T09:45:20;17.48;;;9.85;;
13321;SDS011;6730;46.248;6.930;2022-08-19T09:47:47;15.57;;;10.52;;
13321;SDS011;6730;46.248;6.930;2022-08-19T09:50:17;60.13;;;17.77;;
13321;SDS011;6730;46.248;6.930;2022-08-19T09:52:43;14.05;;;10.70;;
13321;SDS011;6730;46.248;6.930;2022-08-19T09:55:10;62.55;;;12.30;;
13321;SDS011;6730;46.248;6.930;2022-08-19T09:57:37;147.15;;;15.82;;
13321;SDS011;6730;46.248;6.930;2022-08-19T10:00:04;16.67;;;9.63;;
13321;SDS011;6730;46.248;6.930;2022-08-19T10:02:32;24.80;;;9.52;;
13321;SDS011;6730;46.248;6.930;2022-08-19T10:04:59;8.95;;;8.05;;
13321;SDS011;6730;46.248;6.930;2022-08-19T10:08:02;7.55;;;6.75;;
13321;SDS011;6730;46.248;6.930;2022-08-19T10:10:28;7.32;;;5.93;;
13321;SDS011;6730;46.248;6.930;2022-08-19T10:12:54;5.93;;;5.32;;
13321;SDS011;6730;46.248;6.930;2022-08-19T10:15:20;7.78;;;7.00;;
13321;SDS011;6730;46.248;6.930;2022-08-19T10:17:46;6.80;;;6.05;;
13321;SDS011;6730;46.248;6.930;2022-08-19T10:20:12;42.78;;;8.85;;
13321;SDS011;6730;46.248;6.930;2022-08-19T10:22:38;186.57;;;13.90;;
13321;SDS011;6730;46.248;6.930;2022-08-19T10:25:04;233.00;;;17.88;;
13321;SDS011;6730;46.248;6.930;2022-08-19T10:27:31;5.75;;;5.15;;
13321;SDS011;6730;46.248;6.930;2022-08-19T10:29:56;6.82;;;6.20;;
13321;SDS011;6730;46.248;6.930;2022-08-19T10:32:22;5.85;;;5.25;;
13321;SDS011;6730;46.248;6.930;2022-08-19T10:34:50;5.13;;;4.57;;
13321;SDS011;6730;46.248;6.930;2022-08-19T10:37:17;5.57;;;4.97;;
13321;SDS011;6730;46.248;6.930;2022-08-19T10:39:43;4.55;;;4.10;;
13321;SDS011;6730;46.248;6.930;2022-08-19T10:42:12;5.20;;;4.70;;
13321;SDS011;6730;46.248;6.930;2022-08-19T10:44:38;5.97;;;4.88;;
13321;SDS011;6730;46.248;6.930;2022-08-19T10:47:05;4.80;;;4.40;;
13321;SDS011;6730;46.248;6.930;2022-08-19T10:49:31;4.57;;;4.18;;
13321;SDS011;6730;46.248;6.930;2022-08-19T10:51:57;4.65;;;4.25;;
13321;SDS011;6730;46.248;6.930;2022-08-19T10:54:41;6.65;;;5.10;;
13321;SDS011;6730;46.248;6.930;2022-08-19T10:57:42;6.05;;;5.53;;
13321;SDS011;6730;46.248;6.930;2022-08-19T11:00:08;5.18;;;4.68;;
13321;SDS011;6730;46.248;6.930;2022-08-19T11:02:34;5.50;;;5.00;;
13321;SDS011;6730;46.248;6.930;2022-08-19T11:05:00;5.28;;;4.78;;
13321;SDS011;6730;46.248;6.930;2022-08-19T11:07:26;5.85;;;5.25;;
13321;SDS011;6730;46.248;6.930;2022-08-19T11:09:51;5.65;;;4.95;;
13321;SDS011;6730;46.248;6.930;2022-08-19T11:12:17;5.78;;;5.28;;
13321;SDS011;6730;46.248;6.930;2022-08-19T11:14:44;6.93;;;5.50;;
13321;SDS011;6730;46.248;6.930;2022-08-19T11:17:09;6.47;;;5.25;;
13321;SDS011;6730;46.248;6.930;2022-08-19T11:19:38;8.15;;;5.90;;
13321;SDS011;6730;46.248;6.930;2022-08-19T11:22:07;6.72;;;5.97;;
13321;SDS011;6730;46.248;6.930;2022-08-19T11:24:35;9.00;;;6.53;;
13321;SDS011;6730;46.248;6.930;2022-08-19T11:27:06;7.65;;;6.63;;
13321;SDS011;6730;46.248;6.930;2022-08-19T11:29:34;8.10;;;6.50;;
13321;SDS011;6730;46.248;6.930;2022-08-19T11:32:03;7.07;;;6.38;;
13321;SDS011;6730;46.248;6.930;2022-08-19T11:34:30;6.35;;;5.75;;
13321;SDS011;6730;46.248;6.930;2022-08-19T11:36:56;6.55;;;5.55;;
13321;SDS011;6730;46.248;6.930;2022-08-19T11:39:26;7.20;;;6.50;;
13321;SDS011;6730;46.248;6.930;2022-08-19T11:41:53;6.05;;;5.32;;
13321;SDS011;6730;46.248;6.930;2022-08-19T11:44:19;6.93;;;6.25;;
13321;SDS011;6730;46.248;6.930;2022-08-19T11:46:45;6.60;;;6.00;;
13321;SDS011;6730;46.248;6.930;2022-08-19T11:49:12;7.18;;;6.47;;
13321;SDS011;6730;46.248;6.930;2022-08-19T11:51:39;7.43;;;6.40;;
13321;SDS011;6730;46.248;6.930;2022-08-19T11:54:08;7.57;;;6.88;;
13321;SDS011;6730;46.248;6.930;2022-08-19T11:56:34;7.30;;;6.70;;
13321;SDS011;6730;46.248;6.930;2022-08-19T11:59:02;7.88;;;6.93;;
13321;SDS011;6730;46.248;6.930;2022-08-19T12:01:28;7.35;;;6.65;;
13321;SDS011;6730;46.248;6.930;2022-08-19T12:03:54;6.50;;;5.90;;
13321;SDS011;6730;46.248;6.930;2022-08-19T12:06:22;8.15;;;6.85;;
13321;SDS011;6730;46.248;6.930;2022-08-19T12:08:52;6.15;;;5.55;;
13321;SDS011;6730;46.248;6.930;2022-08-19T12:11:18;6.22;;;5.63;;
13321;SDS011;6730;46.248;6.930;2022-08-19T12:13:44;6.85;;;6.25;;
13321;SDS011;6730;46.248;6.930;2022-08-19T12:16:11;7.72;;;6.95;;
13321;SDS011;6730;46.248;6.930;2022-08-19T12:18:43;7.68;;;6.93;;
13321;SDS011;6730;46.248;6.930;2022-08-19T12:21:11;7.78;;;6.75;;
13321;SDS011;6730;46.248;6.930;2022-08-19T12:23:39;7.20;;;6.50;;
13321;SDS011;6730;46.248;6.930;2022-08-19T12:26:05;7.53;;;6.82;;
13321;SDS011;6730;46.248;6.930;2022-08-19T12:28:31;7.22;;;6.55;;
13321;SDS011;6730;46.248;6.930;2022-08-19T12:30:57;6.25;;;5.72;;
13321;SDS011;6730;46.248;6.930;2022-08-19T12:33:23;8.68;;;7.40;;
13321;SDS011;6730;46.248;6.930;2022-08-19T12:35:52;11.15;;;8.00;;
13321;SDS011;6730;46.248;6.930;2022-08-19T12:38:18;8.95;;;8.05;;
13321;SDS011;6730;46.248;6.930;2022-08-19T12:40:47;8.10;;;7.28;;
13321;SDS011;6730;46.248;6.930;2022-08-19T12:43:13;8.48;;;7.57;;
13321;SDS011;6730;46.248;6.930;2022-08-19T12:45:41;7.97;;;7.18;;
13321;SDS011;6730;46.248;6.930;2022-08-19T12:48:08;7.57;;;6.82;;
13321;SDS011;6730;46.248;6.930;2022-08-19T12:50:34;8.65;;;7.75;;
13321;SDS011;6730;46.248;6.930;2022-08-19T12:53:00;8.65;;;7.75;;
13321;SDS011;6730;46.248;6.930;2022-08-19T12:55:25;7.18;;;6.45;;
13321;SDS011;6730;46.248;6.930;2022-08-19T12:57:53;8.10;;;7.32;;
13321;SDS011;6730;46.248;6.930;2022-08-19T13:00:20;14.60;;;8.80;;
13321;SDS011;6730;46.248;6.930;2022-08-19T13:02:47;12.38;;;9.38;;
13321;SDS011;6730;46.248;6.930;2022-08-19T13:05:19;10.20;;;8.00;;
13321;SDS011;6730;46.248;6.930;2022-08-19T13:07:51;9.50;;;8.60;;
13321;SDS011;6730;46.248;6.930;2022-08-19T13:10:20;8.23;;;7.47;;
13321;SDS011;6730;46.248;6.930;2022-08-19T13:12:48;8.13;;;6.95;;
13321;SDS011;6730;46.248;6.930;2022-08-19T13:15:15;8.35;;;7.55;;
13321;SDS011;6730;46.248;6.930;2022-08-19T13:17:45;6.82;;;6.13;;
13321;SDS011;6730;46.248;6.930;2022-08-19T13:20:13;7.07;;;6.38;;
13321;SDS011;6730;46.248;6.930;2022-08-19T13:22:39;10.10;;;8.25;;
13321;SDS011;6730;46.248;6.930;2022-08-19T13:25:06;8.07;;;7.32;;
13321;SDS011;6730;46.248;6.930;2022-08-19T13:27:33;8.50;;;7.68;;
13321;SDS011;6730;46.248;6.930;2022-08-19T13:30:00;8.25;;;7.45;;
13321;SDS011;6730;46.248;6.930;2022-08-19T13:32:46;9.52;;;7.63;;
13321;SDS011;6730;46.248;6.930;2022-08-19T13:35:30;10.05;;;8.02;;
13321;SDS011;6730;46.248;6.930;2022-08-19T13:37:55;10.07;;;8.27;;
13321;SDS011;6730;46.248;6.930;2022-08-19T13:40:22;10.02;;;7.97;;
13321;SDS011;6730;46.248;6.930;2022-08-19T13:42:52;11.18;;;8.63;;
13321;SDS011;6730;46.248;6.930;2022-08-19T13:45:20;9.98;;;8.85;;
13321;SDS011;6730;46.248;6.930;2022-08-19T13:47:47;17.92;;;16.25;;
13321;SDS011;6730;46.248;6.930;2022-08-19T13:50:19;11.48;;;10.27;;
13321;SDS011;6730;46.248;6.930;2022-08-19T13:52:47;9.65;;;8.75;;
13321;SDS011;6730;46.248;6.930;2022-08-19T13:55:14;9.82;;;8.82;;
13321;SDS011;6730;46.248;6.930;2022-08-19T13:57:40;10.88;;;9.80;;
13321;SDS011;6730;46.248;6.930;2022-08-19T14:00:10;14.52;;;9.75;;
13321;SDS011;6730;46.248;6.930;2022-08-19T14:02:39;11.77;;;9.55;;
13321;SDS011;6730;46.248;6.930;2022-08-19T14:05:07;11.15;;;9.65;;
13321;SDS011;6730;46.248;6.930;2022-08-19T14:07:36;10.27;;;9.18;;
13321;SDS011;6730;46.248;6.930;2022-08-19T14:10:02;8.73;;;7.93;;
13321;SDS011;6730;46.248;6.930;2022-08-19T14:12:29;9.10;;;7.55;;
13321;SDS011;6730;46.248;6.930;2022-08-19T14:14:57;8.82;;;7.93;;
13321;SDS011;6730;46.248;6.930;2022-08-19T14:17:23;8.38;;;6.78;;
13321;SDS011;6730;46.248;6.930;2022-08-19T14:19:50;9.30;;;8.15;;
13321;SDS011;6730;46.248;6.930;2022-08-19T14:22:23;9.75;;;8.25;;
13321;SDS011;6730;46.248;6.930;2022-08-19T14:24:48;9.35;;;8.45;;
13321;SDS011;6730;46.248;6.930;2022-08-19T14:27:15;10.18;;;9.18;;
13321;SDS011;6730;46.248;6.930;2022-08-19T14:29:40;9.20;;;8.32;;
13321;SDS011;6730;46.248;6.930;2022-08-19T14:32:06;10.40;;;9.40;;
13321;SDS011;6730;46.248;6.930;2022-08-19T14:34:32;9.23;;;8.32;;
13321;SDS011;6730;46.248;6.930;2022-08-19T14:36:58;8.02;;;7.32;;
13321;SDS011;6730;46.248;6.930;2022-08-19T14:39:24;8.45;;;7.63;;
13321;SDS011;6730;46.248;6.930;2022-08-19T14:41:50;9.88;;;8.82;;
13321;SDS011;6730;46.248;6.930;2022-08-19T14:44:16;9.68;;;8.77;;
13321;SDS011;6730;46.248;6.930;2022-08-19T14:46:41;11.25;;;10.05;;
13321;SDS011;6730;46.248;6.930;2022-08-19T14:49:09;11.05;;;9.50;;
13321;SDS011;6730;46.248;6.930;2022-08-19T14:51:34;9.93;;;8.93;;
13321;SDS011;6730;46.248;6.930;2022-08-19T14:54:00;10.95;;;9.88;;
13321;SDS011;6730;46.248;6.930;2022-08-19T14:56:27;11.05;;;9.52;;
13321;SDS011;6730;46.248;6.930;2022-08-19T14:58:55;12.38;;;10.25;;
13321;SDS011;6730;46.248;6.930;2022-08-19T15:01:24;13.93;;;10.38;;
13321;SDS011;6730;46.248;6.930;2022-08-19T15:03:50;12.05;;;10.07;;
13321;SDS011;6730;46.248;6.930;2022-08-19T15:06:20;10.70;;;9.68;;
13321;SDS011;6730;46.248;6.930;2022-08-19T15:08:47;10.18;;;8.75;;
13321;SDS011;6730;46.248;6.930;2022-08-19T15:11:14;10.80;;;9.20;;
13321;SDS011;6730;46.248;6.930;2022-08-19T15:13:44;10.00;;;8.82;;
13321;SDS011;6730;46.248;6.930;2022-08-19T15:16:11;11.82;;;10.63;;
13321;SDS011;6730;46.248;6.930;2022-08-19T15:18:39;10.68;;;9.57;;
13321;SDS011;6730;46.248;6.930;2022-08-19T15:21:08;12.35;;;10.30;;
13321;SDS011;6730;46.248;6.930;2022-08-19T15:23:35;13.68;;;10.55;;
13321;SDS011;6730;46.248;6.930;2022-08-19T15:26:01;9.82;;;8.80;;
13321;SDS011;6730;46.248;6.930;2022-08-19T15:28:27;11.38;;;9.25;;